createdAt,value
2022-11-19T00:01:31.456Z,1.38
2022-11-19T00:03:58.265Z,1.10
2022-11-19T00:06:27.156Z,1.45
2022-11-19T00:08:54.639Z,1.30
2022-11-19T00:11:45.522Z,1.42
2022-11-19T00:14:14.543Z,1.10
2022-11-19T00:16:41.989Z,1.20
2022-11-19T00:19:11.288Z,1.20
2022-11-19T00:21:39.647Z,0.98
2022-11-19T00:24:07.189Z,1.50
2022-11-19T00:26:33.768Z,1.20
2022-11-19T00:29:02.815Z,1.08
2022-11-19T00:31:31.507Z,1.40
2022-11-19T00:33:58.022Z,1.17
2022-11-19T00:36:24.748Z,1.13
2022-11-19T00:38:51.244Z,1.13
2022-11-19T00:41:22.159Z,1.10
2022-11-19T00:43:49.403Z,1.27
2022-11-19T00:46:18.902Z,1.50
2022-11-19T00:48:52.438Z,1.23
2022-11-19T00:51:21.270Z,0.82
2022-11-19T00:53:47.810Z,1.00
2022-11-19T00:56:19.193Z,1.00
2022-11-19T00:58:47.210Z,0.65
2022-11-19T01:01:15.254Z,0.73
2022-11-19T01:03:51.529Z,0.90
2022-11-19T01:06:34.476Z,0.80
2022-11-19T01:09:01.786Z,0.70
2022-11-19T01:11:32.211Z,0.80
2022-11-19T01:13:59.353Z,0.70
2022-11-19T01:16:29.350Z,0.57
2022-11-19T01:18:56.211Z,0.75
2022-11-19T01:21:28.142Z,1.00
2022-11-19T01:23:56.084Z,0.98
2022-11-19T01:26:23.339Z,0.80
2022-11-19T01:28:52.553Z,1.05
2022-11-19T01:31:22.537Z,0.70
2022-11-19T01:33:51.739Z,0.90
2022-11-19T01:36:28.272Z,0.90
2022-11-19T01:38:55.962Z,0.98
2022-11-19T01:41:35.464Z,0.68
2022-11-19T01:44:07.121Z,0.95
2022-11-19T01:46:39.233Z,0.90
2022-11-19T01:49:20.573Z,1.13
2022-11-19T01:51:53.943Z,1.00
2022-11-19T01:54:31.477Z,1.10
2022-11-19T01:57:08.536Z,0.85
2022-11-19T01:59:35.543Z,0.80
2022-11-19T02:07:26.407Z,0.90
2022-11-19T02:09:58.249Z,1.00
2022-11-19T02:12:42.534Z,1.10
2022-11-19T02:15:34.048Z,0.98
2022-11-19T02:18:08.439Z,1.10
2022-11-19T02:20:58.658Z,1.08
2022-11-19T02:24:00.788Z,0.90
2022-11-19T02:26:56.130Z,1.00
2022-11-19T02:29:32.027Z,1.02
2022-11-19T02:32:04.731Z,1.00
2022-11-19T02:34:40.380Z,1.17
2022-11-19T02:37:20.909Z,1.20
2022-11-19T02:39:58.726Z,0.90
2022-11-19T02:42:36.093Z,1.08
2022-11-19T02:45:13.798Z,1.08
2022-11-19T02:47:44.899Z,1.00
2022-11-19T02:50:31.788Z,1.20
2022-11-19T02:52:58.825Z,0.95
2022-11-19T02:55:25.826Z,1.10
2022-11-19T02:57:59.844Z,1.23
2022-11-19T03:00:46.450Z,1.00
2022-11-19T03:03:35.244Z,1.20
2022-11-19T03:06:11.977Z,1.15
2022-11-19T03:08:40.608Z,1.02
2022-11-19T03:11:10.129Z,1.10
2022-11-19T03:14:08.270Z,1.42
2022-11-19T03:16:41.496Z,1.20
2022-11-19T03:19:27.217Z,1.10
2022-11-19T03:22:02.477Z,0.90
2022-11-19T03:24:38.331Z,0.90
2022-11-19T03:29:45.708Z,1.10
2022-11-19T03:32:18.390Z,1.15
2022-11-19T03:34:49.150Z,1.15
2022-11-19T03:37:28.193Z,1.10
2022-11-19T03:40:02.360Z,1.10
2022-11-19T03:42:35.219Z,1.17
2022-11-19T03:45:15.274Z,1.50
2022-11-19T03:47:44.090Z,1.90
2022-11-19T03:50:28.512Z,1.33
2022-11-19T03:53:03.854Z,1.25
2022-11-19T03:55:41.414Z,1.17
2022-11-19T03:58:14.198Z,0.98
2022-11-19T04:00:40.825Z,1.10
2022-11-19T04:03:13.635Z,1.05
2022-11-19T04:05:40.170Z,0.82
2022-11-19T04:08:06.779Z,0.98
2022-11-19T04:10:35.111Z,0.80
2022-11-19T04:13:01.837Z,0.95
2022-11-19T04:15:31.056Z,1.10
2022-11-19T04:17:59.343Z,0.70
2022-11-19T04:23:20.334Z,0.93
2022-11-19T04:25:47.660Z,1.00
2022-11-19T04:28:14.175Z,0.80
2022-11-19T04:30:40.783Z,0.90
2022-11-19T04:33:07.260Z,0.55
2022-11-19T04:35:36.088Z,0.70
2022-11-19T04:38:04.481Z,0.68
2022-11-19T04:40:30.940Z,0.88
2022-11-19T04:42:57.428Z,0.80
2022-11-19T04:45:30.527Z,0.90
2022-11-19T04:47:57.026Z,0.82
2022-11-19T04:50:23.580Z,0.60
2022-11-19T04:52:52.254Z,0.80
2022-11-19T04:55:21.026Z,0.52
2022-11-19T04:57:49.649Z,0.80
2022-11-19T05:00:22.235Z,0.80
2022-11-19T05:02:48.707Z,0.60
2022-11-19T05:05:15.280Z,0.40
2022-11-19T05:07:48.360Z,0.70
2022-11-19T05:10:14.839Z,0.45
2022-11-19T05:12:41.472Z,0.70
2022-11-19T05:15:08.765Z,0.65
2022-11-19T05:17:35.480Z,0.80
2022-11-19T05:20:02.269Z,0.80
2022-11-19T05:22:29.110Z,0.50
2022-11-19T05:25:03.216Z,0.50
2022-11-19T05:27:36.290Z,0.60
2022-11-19T05:30:03.751Z,0.60
2022-11-19T05:32:30.317Z,0.50
2022-11-19T05:34:58.560Z,0.60
2022-11-19T05:37:25.037Z,0.45
2022-11-19T05:39:51.807Z,0.52
2022-11-19T05:42:20.444Z,0.70
2022-11-19T05:44:46.913Z,0.70
2022-11-19T05:47:15.860Z,0.70
2022-11-19T05:49:53.129Z,0.60
2022-11-19T05:52:22.400Z,0.70
2022-11-19T05:54:48.977Z,0.85
2022-11-19T05:57:17.293Z,0.50
2022-11-19T05:59:45.637Z,0.77
2022-11-19T06:02:12.421Z,0.60
2022-11-19T06:04:40.675Z,0.50
2022-11-19T06:07:07.424Z,0.60
2022-11-19T06:09:34.018Z,0.80
2022-11-19T06:12:00.641Z,0.60
2022-11-19T06:14:27.561Z,0.80
2022-11-19T06:16:57.413Z,0.73
2022-11-19T06:19:25.226Z,0.88
2022-11-19T06:21:52.930Z,0.70
2022-11-19T06:24:20.653Z,0.77
2022-11-19T06:26:49.395Z,1.00
2022-11-19T06:29:17.489Z,0.82
2022-11-19T06:31:44.478Z,1.00
2022-11-19T06:34:13.284Z,0.90
2022-11-19T06:36:43.900Z,0.82
2022-11-19T06:39:14.447Z,0.63
2022-11-19T06:41:44.316Z,0.90
2022-11-19T06:44:10.777Z,0.90
2022-11-19T06:46:38.576Z,0.80
2022-11-19T06:49:05.888Z,0.95
2022-11-19T06:51:32.822Z,1.00
2022-11-19T06:54:03.923Z,1.35
2022-11-19T06:56:30.413Z,0.80
2022-11-19T06:58:58.388Z,1.17
2022-11-19T07:01:25.078Z,1.08
2022-11-19T07:03:51.849Z,1.10
2022-11-19T07:06:18.364Z,1.10
2022-11-19T07:08:46.614Z,1.30
2022-11-19T07:11:27.942Z,1.10
2022-11-19T07:13:58.453Z,0.80
2022-11-19T07:16:31.048Z,1.33
2022-11-19T07:19:03.417Z,0.98
2022-11-19T07:21:30.825Z,1.20
2022-11-19T07:23:58.407Z,1.08
2022-11-19T07:26:25.585Z,1.02
2022-11-19T07:28:52.193Z,0.90
2022-11-19T07:31:19.060Z,1.00
2022-11-19T07:33:45.751Z,1.00
2022-11-19T07:36:18.211Z,1.00
2022-11-19T07:38:45.336Z,1.17
2022-11-19T07:41:30.878Z,1.00
2022-11-19T07:44:00.837Z,1.10
2022-11-19T07:46:27.347Z,1.20
2022-11-19T07:48:56.680Z,1.10
2022-11-19T07:51:24.257Z,1.00
2022-11-19T07:53:51.558Z,1.30
2022-11-19T07:56:18.834Z,1.05
2022-11-19T07:58:45.347Z,1.17
2022-11-19T08:01:14.646Z,1.10
2022-11-19T08:03:46.166Z,1.30
2022-11-19T08:06:15.505Z,1.23
2022-11-19T08:08:45.328Z,1.30
2022-11-19T08:11:13.991Z,1.40
2022-11-19T08:13:40.865Z,1.30
2022-11-19T08:16:13.084Z,1.30
2022-11-19T08:18:39.898Z,1.70
2022-11-19T08:21:12.682Z,2.35
2022-11-19T08:23:43.217Z,2.35
2022-11-19T08:26:09.724Z,2.05
2022-11-19T08:28:36.227Z,2.28
2022-11-19T08:31:09.142Z,1.88
2022-11-19T08:33:40.469Z,1.90
2022-11-19T08:36:07.107Z,2.10
2022-11-19T08:38:38.613Z,1.83
2022-11-19T08:41:24.439Z,1.95
2022-11-19T08:43:51.198Z,1.67
2022-11-19T08:46:17.721Z,1.40
2022-11-19T08:48:44.296Z,1.65
2022-11-19T08:51:17.377Z,1.40
2022-11-19T08:53:43.829Z,1.27
2022-11-19T08:56:18.056Z,1.15
2022-11-19T08:58:49.459Z,1.20
2022-11-19T09:01:21.297Z,1.08
2022-11-19T09:03:51.535Z,1.02
2022-11-19T09:06:18.013Z,1.15
2022-11-19T09:08:44.620Z,1.00
2022-11-19T09:11:16.662Z,1.17
2022-11-19T09:13:43.461Z,1.10
2022-11-19T09:16:12.647Z,1.40
2022-11-19T09:18:40.286Z,1.23
2022-11-19T09:21:08.968Z,1.10
2022-11-19T09:23:35.814Z,1.20
2022-11-19T09:26:06.128Z,1.20
2022-11-19T09:28:32.802Z,1.15
2022-11-19T09:31:02.506Z,1.38
2022-11-19T09:33:31.021Z,1.10
2022-11-19T09:35:57.566Z,1.02
2022-11-19T09:38:24.046Z,1.30
2022-11-19T09:40:54.136Z,1.00
2022-11-19T09:43:44.636Z,1.17
2022-11-19T09:46:45.166Z,1.25
2022-11-19T09:49:18.577Z,0.88
2022-11-19T09:51:59.193Z,1.17
2022-11-19T09:54:26.654Z,1.02
2022-11-19T09:57:00.396Z,1.08
2022-11-19T09:59:35.127Z,1.05
2022-11-19T10:02:03.813Z,1.17
2022-11-19T10:04:33.568Z,0.80
2022-11-19T10:07:38.413Z,1.05
2022-11-19T10:10:34.297Z,1.10
2022-11-19T10:13:14.656Z,1.10
2022-11-19T10:16:22.814Z,1.20
2022-11-19T10:19:01.512Z,1.02
2022-11-19T10:21:34.168Z,1.10
2022-11-19T10:24:18.542Z,1.20
2022-11-19T10:26:55.541Z,1.45
2022-11-19T10:29:27.228Z,1.50
2022-11-19T10:31:53.813Z,1.48
2022-11-19T10:34:30.492Z,1.50
2022-11-19T10:37:12.893Z,1.40
2022-11-19T10:39:56.170Z,1.35
2022-11-19T10:42:30.188Z,1.30
2022-11-19T10:45:07.391Z,1.60
2022-11-19T10:47:57.823Z,1.33
2022-11-19T10:50:27.796Z,1.13
2022-11-19T10:52:57.708Z,1.77
2022-11-19T10:55:35.276Z,1.45
2022-11-19T10:58:10.648Z,1.70
2022-11-19T11:00:44.326Z,1.73
2022-11-19T11:03:25.389Z,1.30
2022-11-19T11:06:08.449Z,2.03
2022-11-19T11:08:51.799Z,1.80
2022-11-19T11:11:53.084Z,1.42
2022-11-19T11:14:41.582Z,1.42
2022-11-19T11:17:26.181Z,1.40
2022-11-19T11:20:03.943Z,1.60
2022-11-19T11:22:37.001Z,1.60
2022-11-19T11:25:07.266Z,1.48
2022-11-19T11:27:40.494Z,1.60
2022-11-19T11:30:12.693Z,1.40
2022-11-19T11:32:40.476Z,1.63
2022-11-19T11:35:29.304Z,1.30
2022-11-19T11:37:56.204Z,1.50
2022-11-19T11:40:23.490Z,1.65
2022-11-19T11:42:53.106Z,1.30
2022-11-19T11:45:32.694Z,1.40
2022-11-19T11:48:09.260Z,1.70
2022-11-19T11:50:37.246Z,1.42
2022-11-19T11:53:10.113Z,1.27
2022-11-19T11:55:38.806Z,1.58
2022-11-19T11:58:26.887Z,1.33
2022-11-19T12:00:55.963Z,1.20
2022-11-19T12:03:22.581Z,1.42
2022-11-19T12:06:10.616Z,1.35
2022-11-19T12:09:05.249Z,1.33
2022-11-19T12:11:56.348Z,1.30
2022-11-19T12:15:15.962Z,1.13
2022-11-19T12:18:07.037Z,1.23
2022-11-19T12:21:04.326Z,1.58
2022-11-19T12:23:40.225Z,2.28
2022-11-19T12:26:30.765Z,1.60
2022-11-19T12:29:32.491Z,1.58
2022-11-19T12:32:01.936Z,1.60
2022-11-19T12:34:51.415Z,1.40
2022-11-19T12:37:37.597Z,1.00
2022-11-19T12:40:22.454Z,1.23
2022-11-19T12:43:18.158Z,1.48
2022-11-19T12:46:03.417Z,1.02
2022-11-19T12:48:46.041Z,1.38
2022-11-19T12:51:34.346Z,1.20
2022-11-19T12:54:38.417Z,1.17
2022-11-19T12:57:45.598Z,1.40
2022-11-19T13:03:16.616Z,1.70
2022-11-19T13:08:49.729Z,1.25
2022-11-19T13:11:23.292Z,1.20
2022-11-19T13:14:04.421Z,1.33
2022-11-19T13:16:34.426Z,1.10
2022-11-19T13:19:32.675Z,1.20
2022-11-19T13:21:59.237Z,1.20
2022-11-19T13:24:43.496Z,1.10
2022-11-19T13:27:20.154Z,1.23
2022-11-19T13:29:55.992Z,1.38
2022-11-19T13:32:45.832Z,1.75
2022-11-19T13:35:22.036Z,1.60
2022-11-19T13:38:01.083Z,1.70
2022-11-19T13:40:52.017Z,1.33
2022-11-19T13:43:39.383Z,1.50
2022-11-19T13:46:13.261Z,1.38
2022-11-19T13:48:45.280Z,1.40
2022-11-19T13:51:34.692Z,1.98
2022-11-19T13:54:04.720Z,1.42
2022-11-19T13:56:49.219Z,1.60
2022-11-19T14:02:48.452Z,1.63
2022-11-19T14:05:40.993Z,1.52
2022-11-19T14:08:41.405Z,1.60
2022-11-19T14:11:31.781Z,1.48
2022-11-19T14:14:44.586Z,1.27
2022-11-19T14:17:58.004Z,1.30
2022-11-19T14:20:55.432Z,1.70
2022-11-19T14:24:00.970Z,1.60
2022-11-19T14:26:52.373Z,1.67
2022-11-19T14:29:19.440Z,1.70
2022-11-19T14:32:01.165Z,1.65
2022-11-19T14:34:31.109Z,1.30
2022-11-19T14:37:00.979Z,1.83
2022-11-19T14:39:33.488Z,1.40
2022-11-19T14:42:22.907Z,2.00
2022-11-19T14:45:01.444Z,2.05
2022-11-19T14:47:33.515Z,1.70
2022-11-19T14:50:02.673Z,1.95
2022-11-19T14:52:36.541Z,2.08
2022-11-19T14:55:22.447Z,2.38
2022-11-19T14:58:20.753Z,1.67
2022-11-19T15:00:47.778Z,1.80
2022-11-19T15:03:22.384Z,1.80
2022-11-19T15:05:49.853Z,1.90
2022-11-19T15:08:24.040Z,2.17
2022-11-19T15:11:11.460Z,2.00
2022-11-19T15:13:44.221Z,1.60
2022-11-19T15:16:27.142Z,2.30
2022-11-19T15:19:29.718Z,1.85
2022-11-19T15:22:21.403Z,1.98
2022-11-19T15:25:17.523Z,2.10
2022-11-19T15:27:56.227Z,1.60
2022-11-19T15:30:27.577Z,2.03
2022-11-19T15:33:18.904Z,1.63
2022-11-19T15:36:10.052Z,1.85
2022-11-19T15:38:47.821Z,1.77
2022-11-19T15:41:19.132Z,2.22
2022-11-19T15:44:00.181Z,2.33
2022-11-19T15:46:32.446Z,2.13
2022-11-19T15:49:19.570Z,2.00
2022-11-19T15:51:58.642Z,2.20
2022-11-19T15:54:30.131Z,1.92
2022-11-19T15:57:23.341Z,1.63
2022-11-19T16:00:01.456Z,2.08
2022-11-19T16:02:36.612Z,2.10
2022-11-19T16:05:03.917Z,2.30
2022-11-19T16:07:31.055Z,2.35
2022-11-19T16:09:59.345Z,2.00
2022-11-19T16:12:47.303Z,1.77
2022-11-19T16:18:32.682Z,1.92
2022-11-19T16:21:01.572Z,1.77
2022-11-19T16:23:28.117Z,1.40
2022-11-19T16:25:56.493Z,1.40
2022-11-19T16:28:27.694Z,1.10
2022-11-19T16:31:03.342Z,1.20
2022-11-19T16:33:35.738Z,1.00
2022-11-19T16:36:21.262Z,0.80
2022-11-19T16:38:52.454Z,0.85
2022-11-19T16:41:40.884Z,0.65
2022-11-19T16:44:21.517Z,1.30
2022-11-19T16:46:48.685Z,0.60
2022-11-19T16:49:32.824Z,0.70
2022-11-19T16:52:00.134Z,0.65
2022-11-19T16:54:49.719Z,0.68
2022-11-19T16:57:23.618Z,0.75
2022-11-19T16:59:52.611Z,0.70
2022-11-19T17:02:21.577Z,0.60
2022-11-19T17:04:52.230Z,0.65
2022-11-19T17:07:26.512Z,0.70
2022-11-19T17:10:34.180Z,0.60
2022-11-19T17:13:04.171Z,0.70
2022-11-19T17:15:46.778Z,0.50
2022-11-19T17:18:23.760Z,0.75
2022-11-19T17:20:58.127Z,0.52
2022-11-19T17:23:34.417Z,0.70
2022-11-19T17:26:05.859Z,0.70
2022-11-19T17:28:42.617Z,0.68
2022-11-19T17:31:22.954Z,0.50
2022-11-19T17:33:58.005Z,0.70
2022-11-19T17:36:36.685Z,0.68
2022-11-19T17:39:10.138Z,0.60
2022-11-19T17:41:55.613Z,0.60
2022-11-19T17:44:40.319Z,0.80
2022-11-19T17:47:22.477Z,0.80
2022-11-19T17:49:50.489Z,0.90
2022-11-19T17:52:20.259Z,1.08
2022-11-19T17:54:50.804Z,0.80
2022-11-19T17:57:17.342Z,0.90
2022-11-19T17:59:43.861Z,1.00
2022-11-19T18:02:18.651Z,0.80
2022-11-19T18:04:46.605Z,0.90
2022-11-19T18:07:13.951Z,0.93
2022-11-19T18:09:43.587Z,0.90
2022-11-19T18:15:06.948Z,0.85
2022-11-19T18:17:33.472Z,1.05
2022-11-19T18:20:04.336Z,1.35
2022-11-19T18:22:32.646Z,1.10
2022-11-19T18:24:59.419Z,1.20
2022-11-19T18:27:32.389Z,1.45
2022-11-19T18:29:58.870Z,1.30
2022-11-19T18:32:25.416Z,3.42
2022-11-19T18:34:51.878Z,3.88
2022-11-19T18:37:22.815Z,2.58
2022-11-19T18:39:49.286Z,3.20
2022-11-19T18:42:15.908Z,2.55
2022-11-19T18:44:45.219Z,4.47
2022-11-19T18:47:14.632Z,3.83
2022-11-19T18:49:41.969Z,2.85
2022-11-19T18:52:16.354Z,2.70
2022-11-19T18:54:43.174Z,3.65
2022-11-19T18:57:10.964Z,2.90
2022-11-19T18:59:38.720Z,2.83
2022-11-19T19:02:06.330Z,3.10
2022-11-19T19:04:32.914Z,2.80
2022-11-19T19:07:07.568Z,2.80
2022-11-19T19:09:34.155Z,2.35
2022-11-19T19:12:19.006Z,2.80
2022-11-19T19:14:51.374Z,2.67
2022-11-19T19:17:18.641Z,1.98
2022-11-19T19:19:54.142Z,2.15
2022-11-19T19:22:23.356Z,2.10
2022-11-19T19:24:53.822Z,2.50
2022-11-19T19:27:23.477Z,2.80
2022-11-19T19:29:50.029Z,2.80
2022-11-19T19:32:16.777Z,2.95
2022-11-19T19:34:43.453Z,3.42
2022-11-19T19:37:10.016Z,4.32
2022-11-19T19:39:38.782Z,5.78
2022-11-19T19:42:05.496Z,5.20
2022-11-19T19:44:32.228Z,4.00
2022-11-19T19:46:59.430Z,6.65
2022-11-19T19:49:26.059Z,5.60
2022-11-19T19:51:55.017Z,5.30
2022-11-19T19:54:21.515Z,5.72
2022-11-19T19:56:50.299Z,4.40
2022-11-19T19:59:16.843Z,4.03
2022-11-19T20:01:47.462Z,3.95
2022-11-19T20:04:18.641Z,3.30
2022-11-19T20:06:47.329Z,3.72
2022-11-19T20:09:14.104Z,3.63
2022-11-19T20:11:40.621Z,2.95
2022-11-19T20:14:07.342Z,3.10
2022-11-19T20:16:34.185Z,3.30
2022-11-19T20:19:02.138Z,3.17
2022-11-19T20:21:36.378Z,2.78
2022-11-19T20:24:11.801Z,2.63
2022-11-19T20:26:41.864Z,2.90
2022-11-19T20:29:11.490Z,2.40
2022-11-19T20:31:38.190Z,2.60
2022-11-19T20:34:05.486Z,2.25
2022-11-19T20:36:35.200Z,2.25
2022-11-19T20:39:06.463Z,2.03
2022-11-19T20:41:53.782Z,2.50
2022-11-19T20:44:21.043Z,2.25
2022-11-19T20:47:06.412Z,2.28
2022-11-19T20:49:39.417Z,1.95
2022-11-19T20:52:11.000Z,2.20
2022-11-19T20:54:37.488Z,1.80
2022-11-19T20:57:04.352Z,2.08
2022-11-19T20:59:33.575Z,1.90
2022-11-19T21:02:00.150Z,2.00
2022-11-19T21:04:28.905Z,1.92
2022-11-19T21:06:55.639Z,2.20
2022-11-19T21:09:22.325Z,2.15
2022-11-19T21:11:48.967Z,2.38
2022-11-19T21:14:17.199Z,2.30
2022-11-19T21:16:43.709Z,2.33
2022-11-19T21:19:12.588Z,2.72
2022-11-19T21:21:39.209Z,2.80
2022-11-19T21:24:06.200Z,2.40
2022-11-19T21:26:33.127Z,2.38
2022-11-19T21:29:06.543Z,2.28
2022-11-19T21:31:38.905Z,2.30
2022-11-19T21:34:09.546Z,2.70
2022-11-19T21:36:38.599Z,2.90
2022-11-19T21:39:08.674Z,2.67
2022-11-19T21:41:35.713Z,2.60
2022-11-19T21:44:03.446Z,2.92
2022-11-19T21:46:30.534Z,2.90
2022-11-19T21:48:57.350Z,3.00
2022-11-19T21:51:25.135Z,3.40
2022-11-19T21:53:57.501Z,4.28
2022-11-19T21:56:25.335Z,3.47
2022-11-19T21:58:51.878Z,4.32
2022-11-19T22:01:24.914Z,4.90
2022-11-19T22:03:51.421Z,5.50
2022-11-19T22:06:17.897Z,5.30
2022-11-19T22:08:46.326Z,4.50
2022-11-19T22:11:31.192Z,3.75
2022-11-19T22:14:07.486Z,5.30
2022-11-19T22:19:08.073Z,3.15
2022-11-19T22:21:37.595Z,2.95
2022-11-19T22:24:04.346Z,3.38
2022-11-19T22:26:31.096Z,3.13
2022-11-19T22:28:58.097Z,3.03
2022-11-19T22:31:28.490Z,2.92
2022-11-19T22:33:55.567Z,3.13
2022-11-19T22:36:23.081Z,3.35
2022-11-19T22:38:50.871Z,3.10
2022-11-19T22:41:19.286Z,2.90
2022-11-19T22:43:56.551Z,3.00
2022-11-19T22:46:23.705Z,2.78
2022-11-19T22:48:51.560Z,2.60
2022-11-19T22:51:23.611Z,2.83
2022-11-19T22:53:53.182Z,3.08
2022-11-19T22:56:22.151Z,2.80
2022-11-19T22:58:50.000Z,2.72
2022-11-19T23:01:26.745Z,3.03
2022-11-19T23:03:56.866Z,3.42
2022-11-19T23:06:24.071Z,3.20
2022-11-19T23:08:50.834Z,2.97
2022-11-19T23:11:40.289Z,3.47
2022-11-19T23:14:15.125Z,3.75
2022-11-19T23:16:42.405Z,2.53
2022-11-19T23:19:10.050Z,2.50
2022-11-19T23:21:37.159Z,2.90
2022-11-19T23:24:05.719Z,2.78
2022-11-19T23:26:33.417Z,3.03
2022-11-19T23:29:00.372Z,2.78
2022-11-19T23:31:37.164Z,2.65
2022-11-19T23:34:03.822Z,2.80
2022-11-19T23:36:33.055Z,2.30
2022-11-19T23:39:02.318Z,1.92
2022-11-19T23:41:32.111Z,2.72
2022-11-19T23:43:59.164Z,1.95
2022-11-19T23:46:39.483Z,2.08
2022-11-19T23:49:06.096Z,2.58
2022-11-19T23:51:35.759Z,2.25
2022-11-19T23:54:02.845Z,2.17
2022-11-19T23:56:31.409Z,2.03
2022-11-19T23:58:59.552Z,2.17
